Flight Track Log - Related Links

Times and Time Zones

All times are in EDT time to prevent confusion due to time zone crossing. See the AAL1326 flight status page for this flight to view local times or setup timezone preferences in your user account.

Time Position Orientation Groundspeed Altitude Reporting Facility
EDT Latitude Longitude Course Direction KTS MPH feet Rate Location/Type
Mon 07:08:47 PM 41.9430 -87.9060 223° Southwest 170 196 2,100  Level FlightAware ADS-B
Mon 07:09:12 PM 41.9190 -87.9030 175° South 213 245 3,100 2,509 Climbing FlightAware ADS-B
Mon 07:09:42 PM 41.8860 -87.9000 176° South 250 288 4,400 2,000 Climbing FlightAware ADS-B
Mon 07:10:12 PM 41.8510 -87.8950 174° South 256 295 5,100 764 Climbing FlightAware ADS-B
Mon 07:10:37 PM 41.8220 -87.8910 174° South 254 292 5,100  Level FlightAware ADS-B
Mon 07:10:57 PM 41.7990 -87.8880 174° South 252 290 5,100  Level FlightAware ADS-B
Mon 07:11:22 PM 41.7770 -87.8940 191° South 243 280 5,100 686 Level FlightAware ADS-B
Mon 07:11:32 PM 41.7660 -87.9070 221° Southwest 244 281 5,500 3,450 Climbing FlightAware ADS-B
Mon 07:12:02 PM 41.7490 -87.9470 240° Southwest 250 288 7,400 4,100 Climbing FlightAware ADS-B
Mon 07:12:32 PM 41.7330 -87.9850 241° Southwest 238 274 9,600 4,533 Climbing FlightAware ADS-B
Mon 07:12:47 PM 41.7180 -88.0000 217° Southwest 235 270 10,800 4,080 Climbing FlightAware ADS-B
Mon 07:12:57 PM 41.7090 -88.0010 185° South 244 281 11,300 3,300 Climbing FlightAware ADS-B
Mon 07:13:27 PM 41.6710 -87.9750 153° Southeast 295 339 13,000 2,829 Climbing FlightAware ADS-B
Mon 07:14:07 PM 41.6240 -87.9310 145° Southeast 321 369 14,600 1,412 Climbing FlightAware ADS-B
Mon 07:14:52 PM 41.5580 -87.8940 157° South 363 418 15,000 282 Climbing FlightAware ADS-B
Mon 07:15:32 PM 41.4960 -87.8670 162° South 347 399 15,000 71 Level FlightAware ADS-B
Mon 07:16:17 PM 41.4280 -87.8370 162° South 339 390 15,100 71 Climbing FlightAware ADS-B
Mon 07:16:57 PM 41.3710 -87.8120 162° South 334 384 15,100 150 Level FlightAware ADS-B
Mon 07:17:37 PM 41.3160 -87.7870 161° South 336 387 15,300 1,341 Climbing FlightAware ADS-B
Mon 07:18:22 PM 41.2430 -87.7540 161° South 367 422 17,000 2,400 Climbing FlightAware ADS-B
Mon 07:19:02 PM 41.1740 -87.7230 161° South 383 441 18,700 2,700 Climbing FlightAware ADS-B
Mon 07:19:42 PM 41.1060 -87.6930 162° South 394 453 20,600 2,550 Climbing FlightAware ADS-B
Mon 07:20:22 PM 41.0430 -87.6650 161° South 406 467 22,100 2,471 Climbing FlightAware ADS-B
Mon 07:21:07 PM 40.9550 -87.6260 161° South 414 476 24,100 2,400 Climbing FlightAware ADS-B
Mon 07:21:52 PM 40.8730 -87.5890 161° South 427 491 25,700 1,906 Climbing FlightAware ADS-B
Mon 07:22:32 PM 40.7980 -87.5560 162° South 439 505 26,800 1,482 Climbing FlightAware ADS-B
Mon 07:23:17 PM 40.7130 -87.5180 161° South 456 525 27,800 1,482 Climbing FlightAware ADS-B
Mon 07:23:57 PM 40.6260 -87.4800 162° South 467 537 28,900 1,725 Climbing FlightAware ADS-B
Mon 07:24:37 PM 40.5430 -87.4440 162° South 471 542 30,100 2,021 Climbing FlightAware ADS-B
Mon 07:25:32 PM 40.4340 -87.3960 161° South 463 533 32,100 1,440 Climbing FlightAware ADS-B
Mon 07:26:17 PM 40.3480 -87.3570 161° South 461 531 32,500 1,765 Climbing FlightAware ADS-B
Mon 07:26:57 PM 40.2680 -87.3240 163° South 456 525 34,600 2,471 Climbing FlightAware ADS-B
Mon 07:27:42 PM 40.1730 -87.2710 157° South 465 535 36,000 1,694 Climbing FlightAware ADS-B
Mon 07:28:22 PM 40.1000 -87.2180 151° Southeast 464 534 37,000 1,575 Climbing FlightAware ADS-B
Mon 07:29:02 PM 40.0180 -87.1740 158° South 443 510 38,100 1,271 Climbing FlightAware ADS-B
Mon 07:29:47 PM 39.9330 -87.1330 160° South 450 518 38,800 706 Climbing FlightAware ADS-B
Mon 07:30:27 PM 39.8520 -87.0940 160° South 458 527 39,100 424 Climbing FlightAware ADS-B
Mon 07:31:12 PM 39.7640 -87.0540 161° South 465 535 39,400 494 Climbing FlightAware ADS-B
Mon 07:31:52 PM 39.6780 -87.0140 160° South 472 543 39,800 825 Climbing FlightAware ADS-B
Mon 07:32:32 PM 39.5950 -86.9760 161° South 464 534 40,500 776 Climbing FlightAware ADS-B
Mon 07:33:17 PM 39.5100 -86.9360 160° South 454 522 40,900 353 Climbing FlightAware ADS-B
Mon 07:33:57 PM 39.4300 -86.9000 161° South 451 519 41,000 71 Climbing FlightAware ADS-B
Mon 07:34:42 PM 39.3490 -86.8640 161° South 451 519 41,000  Level FlightAware ADS-B
Mon 07:35:22 PM 39.2600 -86.8240 161° South 451 519 41,000  Level FlightAware ADS-B
Mon 07:36:02 PM 39.1810 -86.7870 160° South 452 520 41,000  Level FlightAware ADS-B
Mon 07:36:47 PM 39.0950 -86.7470 160° South 452 520 41,000  Level FlightAware ADS-B
Mon 07:37:27 PM 39.0190 -86.7120 160° South 454 522 41,000  Level FlightAware ADS-B
Mon 07:38:12 PM 38.9260 -86.6690 160° South 456 525 41,000  Level FlightAware ADS-B
Mon 07:38:52 PM 38.8470 -86.6330 160° South 458 527 41,000  Level FlightAware ADS-B
Mon 07:39:32 PM 38.7680 -86.5980 161° South 459 528 41,000  Level FlightAware ADS-B
Mon 07:40:17 PM 38.6790 -86.5580 161° South 461 531 41,000  Level FlightAware ADS-B
Mon 07:40:57 PM 38.5980 -86.5210 160° South 463 533 41,000  Level FlightAware ADS-B
Mon 07:41:42 PM 38.5060 -86.4800 161° South 466 536 41,000  Level FlightAware ADS-B
Mon 07:42:22 PM 38.4240 -86.4430 161° South 468 539 41,000  Level FlightAware ADS-B
Mon 07:43:02 PM 38.3400 -86.4060 161° South 470 541 41,000  Level FlightAware ADS-B
Mon 07:43:47 PM 38.2550 -86.3680 161° South 471 542 41,000  Level FlightAware ADS-B
Mon 07:44:27 PM 38.1680 -86.3290 161° South 472 543 41,000  Level FlightAware ADS-B
Mon 07:45:12 PM 38.0790 -86.2900 161° South 471 542 41,000  Level FlightAware ADS-B
Mon 07:45:52 PM 37.9920 -86.2510 161° South 469 540 41,000  Level FlightAware ADS-B
Mon 07:46:32 PM 37.9090 -86.2150 161° South 467 537 41,000  Level FlightAware ADS-B
Mon 07:47:17 PM 37.8200 -86.1750 160° South 468 539 41,000  Level FlightAware ADS-B
Mon 07:47:57 PM 37.7420 -86.1410 161° South 469 540 41,000  Level FlightAware ADS-B
Mon 07:48:36 PM 37.6509 -86.1015 161° South 470 541 41,000  Level FlightAware ADS-B
Mon 07:49:10 PM 37.5819 -86.0713 161° South 470 541 41,000  Level FlightAware ADS-B
Mon 07:49:44 PM 37.5104 -86.0400 161° South 470 541 41,000  Level FlightAware ADS-B
Mon 07:50:15 PM 37.4482 -86.0130 161° South 470 541 41,000  Level FlightAware ADS-B
Mon 07:50:47 PM 37.3910 -85.9880 161° South 468 539 41,000  Level FlightAware ADS-B
Mon 07:51:27 PM 37.3030 -85.9500 161° South 467 537 41,000  Level FlightAware ADS-B
Mon 07:52:12 PM 37.2190 -85.9140 161° South 466 536 41,000  Level FlightAware ADS-B
Mon 07:52:52 PM 37.1320 -85.8760 161° South 467 537 41,000  Level FlightAware ADS-B
Mon 07:53:05 PM 37.0997 -85.8623 161° South 468 539 41,000  Level FlightAware ADS-B
Mon 07:53:37 PM 37.0450 -85.8390 161° South 468 539 41,000  Level FlightAware ADS-B
Mon 07:53:50 PM 37.0076 -85.8227 161° South 470 541 41,000  Level FlightAware ADS-B
Mon 07:54:52 PM 36.8811 -85.7683 161° South 470 541 41,000  Level FlightAware ADS-B
Mon 07:55:25 PM 36.8126 -85.7391 161° South 475 547 41,000  Level FlightAware ADS-B
Mon 07:55:56 PM 36.7483 -85.7116 161° South 476 548 41,000  Level FlightAware ADS-B
Mon 07:56:48 PM 36.6389 -85.6651 161° South 478 550 41,000  Level FlightAware ADS-B
Mon 07:57:19 PM 36.5746 -85.6379 161° South 478 550 41,000  Level FlightAware ADS-B
Mon 07:57:49 PM 36.5101 -85.6107 161° South 479 551 41,000  Level FlightAware ADS-B
Mon 07:58:32 PM 36.4218 -85.5733 161° South 478 550 41,000  Level FlightAware ADS-B
Mon 07:59:02 PM 36.3582 -85.5463 161° South 478 550 41,000  Level FlightAware ADS-B
Mon 07:59:32 PM 36.2952 -85.5196 161° South 474 545 41,000  Level FlightAware ADS-B
Mon 08:00:10 PM 36.2168 -85.4867 161° South 472 543 41,000  Level FlightAware ADS-B
Mon 08:00:41 PM 36.1539 -85.4604 161° South 472 543 41,000  Level FlightAware ADS-B
Mon 08:01:11 PM 36.0906 -85.4338 161° South 472 543 41,000  Level FlightAware ADS-B
Mon 08:01:53 PM 36.0039 -85.3978 161° South 471 542 41,000  Level FlightAware ADS-B
Mon 08:02:24 PM 35.9413 -85.3716 161° South 470 541 41,000  Level FlightAware ADS-B
Mon 08:02:54 PM 35.8791 -85.3453 161° South 471 542 41,000  Level FlightAware ADS-B
Mon 08:03:27 PM 35.8112 -85.3171 161° South 471 542 41,000  Level FlightAware ADS-B
Mon 08:03:58 PM 35.7467 -85.2903 161° South 470 541 41,000  Level FlightAware ADS-B
Mon 08:04:29 PM 35.6822 -85.2635 161° South 470 541 41,000  Level FlightAware ADS-B
Mon 08:05:00 PM 35.6197 -85.2378 162° South 470 541 41,000  Level FlightAware ADS-B
Mon 08:05:39 PM 35.5380 -85.2041 161° South 472 543 41,000  Level FlightAware ADS-B
Mon 08:06:11 PM 35.4725 -85.1772 162° South 471 542 41,000  Level FlightAware ADS-B
Mon 08:06:41 PM 35.4095 -85.1514 162° South 472 543 41,000  Level FlightAware ADS-B
Mon 08:07:11 PM 35.3474 -85.1260 162° South 473 544 41,000  Level FlightAware ADS-B
Mon 08:07:43 PM 35.2820 -85.0989 161° South 473 544 41,000  Level FlightAware ADS-B
Mon 08:08:13 PM 35.2191 -85.0730 161° South 473 544 41,000  Level FlightAware ADS-B
Mon 08:08:45 PM 35.1531 -85.0459 161° South 474 545 41,000  Level FlightAware ADS-B
Mon 08:09:16 PM 35.0893 -85.0200 162° South 473 544 41,000  Level FlightAware ADS-B
Mon 08:09:47 PM 35.0246 -84.9937 162° South 474 545 41,000  Level FlightAware ADS-B
Mon 08:10:17 PM 34.9615 -84.9681 162° South 474 545 41,000  Level FlightAware ADS-B
Mon 08:10:47 PM 34.8986 -84.9424 161° South 476 548 41,000  Level FlightAware ADS-B
Mon 08:11:32 PM 34.8090 -84.9060 162° South 474 545 41,000  Level FlightAware ADS-B
Mon 08:12:07 PM 34.7440 -84.8800 162° South 474 545 41,000  Level FlightAware ADS-B
Mon 08:12:47 PM 34.6620 -84.8470 162° South 474 545 41,000  Level FlightAware ADS-B
Mon 08:13:37 PM 34.5500 -84.8020 162° South 474 545 41,000  Level FlightAware ADS-B
Mon 08:14:22 PM 34.4690 -84.7690 161° South 474 545 41,000  Level FlightAware ADS-B
Mon 08:15:02 PM 34.3790 -84.7330 162° South 474 545 41,000  Level FlightAware ADS-B
Mon 08:15:47 PM 34.2870 -84.6960 162° South 473 544 41,000  Level FlightAware ADS-B
Mon 08:16:10 PM 34.2273 -84.6724 162° South 473 544 41,000  Level FlightAware ADS-B
Mon 08:17:07 PM 34.1190 -84.6290 162° South 472 543 41,000  Level FlightAware ADS-B
Mon 08:17:52 PM 34.0190 -84.5900 162° South 471 542 41,000  Level FlightAware ADS-B
Mon 08:18:32 PM 33.9400 -84.5580 161° South 471 542 41,000  Level FlightAware ADS-B
Mon 08:19:17 PM 33.8470 -84.5210 162° South 470 541 41,000  Level FlightAware ADS-B
Mon 08:20:42 PM 33.6660 -84.4500 162° South 461 531 41,000  Level FlightAware ADS-B
Mon 08:21:13 PM 33.5999 -84.4238 162° South 469 540 41,000  Level FlightAware ADS-B
Mon 08:21:39 PM 33.5454 -84.4007 161° South 470 541 41,000  Level FlightAware ADS-B
Mon 08:22:42 PM 33.4172 -84.3461 160° South 471 542 41,000  Level FlightAware ADS-B
Mon 08:23:13 PM 33.3530 -84.3192 161° South 469 540 41,000  Level FlightAware ADS-B
Mon 08:24:12 PM 33.2370 -84.2710 161° South 460 529 41,000  Level FlightAware ADS-B
Mon 08:24:32 PM 33.1923 -84.2527 161° South 467 537 41,000  Level FlightAware ADS-B
Mon 08:25:20 PM 33.0929 -84.2117 161° South 467 537 41,000  Level FlightAware ADS-B
Mon 08:26:27 PM 32.9620 -84.1580 161° South 464 534 41,000  Level FlightAware ADS-B
Mon 08:27:07 PM 32.8820 -84.1250 161° South 465 535 41,000  Level FlightAware ADS-B
Mon 08:27:47 PM 32.8080 -84.0930 160° South 465 535 41,000  Level FlightAware ADS-B
Mon 08:28:47 PM 32.6760 -84.0400 161° South 458 527 41,000  Level FlightAware ADS-B
Mon 08:29:32 PM 32.5910 -84.0050 161° South 458 527 41,000  Level FlightAware ADS-B
Mon 08:30:07 PM 32.5220 -83.9770 161° South 459 528 41,000  Level FlightAware ADS-B
Mon 08:30:57 PM 32.4270 -83.9380 161° South 460 529 41,000  Level FlightAware ADS-B
Mon 08:31:37 PM 32.3340 -83.9000 161° South 461 531 41,000  Level FlightAware ADS-B
Mon 08:32:17 PM 32.2520 -83.8670 161° South 461 531 41,000  Level FlightAware ADS-B
Mon 08:33:17 PM 32.1430 -83.8210 160° South 461 531 41,000  Level FlightAware ADS-B
Mon 08:33:57 PM 32.0750 -83.7920 160° South 461 531 41,000  Level FlightAware ADS-B
Mon 08:34:37 PM 32.0060 -83.7620 160° South 461 531 41,000  Level FlightAware ADS-B
Mon 08:35:17 PM 31.9380 -83.7330 160° South 461 531 41,000  Level FlightAware ADS-B
Mon 08:35:57 PM 31.8700 -83.7040 160° South 461 531 41,000  Level FlightAware ADS-B
Mon 08:36:47 PM 31.7850 -83.6670 160° South 461 531 41,000  Level FlightAware ADS-B
Mon 08:37:27 PM 31.7170 -83.6380 160° South 461 531 41,000  Level FlightAware ADS-B
Mon 08:38:07 PM 31.6490 -83.6090 160° South 461 531 41,000  Level FlightAware ADS-B
Mon 08:38:47 PM 31.5810 -83.5800 160° South 461 531 41,000  Level FlightAware ADS-B
Mon 08:39:27 PM 31.5120 -83.5510 160° South 461 531 41,000  Level FlightAware ADS-B
Mon 08:40:17 PM 31.4270 -83.5140 160° South 461 531 41,000  Level FlightAware ADS-B
Mon 08:40:57 PM 31.3590 -83.4850 160° South 461 531 41,000  Level FlightAware ADS-B
Mon 08:41:32 PM 31.0960 -83.4840 180° South 470 541 41,000  Level FlightAware ADS-B
Mon 08:42:12 PM 31.0160 -83.4580 164° South 469 540 41,000  Level FlightAware ADS-B
Mon 08:42:57 PM 30.9340 -83.4310 164° South 469 540 41,000  Level FlightAware ADS-B
Mon 08:43:47 PM 30.8460 -83.4010 164° South 469 540 41,000  Level FlightAware ADS-B
Mon 08:44:22 PM 30.7380 -83.3690 166° South 468 539 41,000  Level FlightAware ADS-B
Mon 08:45:07 PM 30.6530 -83.3410 164° South 468 539 41,000  Level FlightAware ADS-B
Mon 08:45:52 PM 30.5530 -83.3100 165° South 468 539 41,000  Level FlightAware ADS-B
Mon 08:46:27 PM 30.5540 -83.3100 360° North 464 534 41,000  Level FlightAware ADS-B
Mon 08:47:17 PM 30.4660 -83.2810 164° South 464 534 41,000  Level FlightAware ADS-B
Mon 08:47:57 PM 30.3960 -83.2580 164° South 464 534 41,000  Level FlightAware ADS-B
Mon 08:48:37 PM 30.3260 -83.2340 164° South 464 534 41,000  Level FlightAware ADS-B
Mon 08:49:17 PM 30.2560 -83.2110 164° South 464 534 41,000  Level FlightAware ADS-B
Mon 08:49:57 PM 30.1850 -83.1880 164° South 464 534 41,000  Level FlightAware ADS-B
Mon 08:50:37 PM 30.1150 -83.1640 163° South 464 534 41,000  Level FlightAware ADS-B
Mon 08:51:27 PM 30.0280 -83.1350 164° South 464 534 41,000  Level FlightAware ADS-B
Mon 08:52:07 PM 29.9570 -83.1120 164° South 464 534 41,000  Level FlightAware ADS-B
Mon 08:52:47 PM 29.8870 -83.0890 164° South 464 534 41,000  Level FlightAware ADS-B
Mon 08:53:27 PM 29.8170 -83.0660 164° South 464 534 41,000  Level FlightAware ADS-B
Mon 08:54:12 PM 29.5180 -82.9870 167° South 453 521 41,000  Level FlightAware ADS-B
Mon 08:54:57 PM 29.4270 -82.9590 165° South 453 521 41,000  Level FlightAware ADS-B
Mon 08:55:37 PM 29.3440 -82.9330 165° South 454 522 41,000  Level FlightAware ADS-B
Mon 08:56:22 PM 29.2510 -82.9050 165° South 454 522 41,000  Level FlightAware ADS-B
Mon 08:57:17 PM 29.1380 -82.8700 165° South 454 522 41,000  Level FlightAware ADS-B
Mon 08:57:57 PM 29.0560 -82.8450 165° South 453 521 41,000  Level FlightAware ADS-B
Mon 08:58:42 PM 28.9610 -82.8160 165° South 452 520 41,000  Level FlightAware ADS-B
Mon 08:59:22 PM 28.8780 -82.7900 165° South 451 519 41,000  Level FlightAware ADS-B
Mon 09:00:02 PM 28.7900 -82.7630 165° South 459 528 41,000  Level FlightAware ADS-B
Mon 09:00:47 PM 28.6950 -82.7350 166° South 457 526 41,000  Level FlightAware ADS-B
Mon 09:01:37 PM 28.6080 -82.7080 165° South 447 514 41,000  Level FlightAware ADS-B
Mon 09:02:22 PM 28.5030 -82.6760 165° South 453 521 41,000  Level FlightAware ADS-B
Mon 09:03:07 PM 28.4140 -82.6490 165° South 453 521 41,000  Level FlightAware ADS-B
Mon 09:03:47 PM 28.3320 -82.6250 166° South 453 521 41,000  Level FlightAware ADS-B
Mon 09:04:27 PM 28.2530 -82.6010 165° South 453 521 41,000  Level FlightAware ADS-B
Mon 09:05:12 PM 28.1570 -82.5720 165° South 455 524 41,000  Level FlightAware ADS-B
Mon 09:05:52 PM 28.0770 -82.5480 165° South 457 526 41,000  Level FlightAware ADS-B
Mon 09:06:37 PM 27.9910 -82.5220 165° South 459 528 41,000 -71 Level FlightAware ADS-B
Mon 09:07:17 PM 27.9030 -82.4920 163° South 463 533 40,900 -635 Descending FlightAware ADS-B
Mon 09:08:02 PM 27.8100 -82.4580 162° South 468 539 40,100 -988 Descending FlightAware ADS-B
Mon 09:08:42 PM 27.7260 -82.4270 162° South 471 542 39,500 -900 Descending FlightAware ADS-B
Mon 09:09:22 PM 27.6440 -82.3960 161° South 470 541 38,900 -918 Descending FlightAware ADS-B
Mon 09:10:07 PM 27.5540 -82.3630 162° South 472 543 38,200 -988 Descending FlightAware ADS-B
Mon 09:10:47 PM 27.4680 -82.3320 162° South 478 550 37,500 -988 Descending FlightAware ADS-B
Mon 09:11:32 PM 27.3720 -82.2970 162° South 483 556 36,800 -960 Descending FlightAware ADS-B
Mon 09:12:02 PM 27.3110 -82.2750 162° South 479 551 36,300 -975 Descending FlightAware ADS-B
Mon 09:12:52 PM 27.2020 -82.2350 162° South 476 548 35,500 -947 Descending FlightAware ADS-B
Mon 09:13:37 PM 27.1090 -82.2200 172° South 460 529 34,800 -565 Descending FlightAware ADS-B
Mon 09:14:17 PM 27.0320 -82.2140 176° South 460 529 34,700 -1,036 Descending FlightAware ADS-B
Mon 09:15:27 PM 26.8870 -82.2040 176° South 476 548 32,900 -2,057 Descending FlightAware ADS-B
Mon 09:16:02 PM 26.8000 -82.1620 157° South 498 573 31,100 -2,520 Descending FlightAware ADS-B
Mon 09:17:07 PM 26.7170 -82.0450 128° Southeast 490 564 28,700 -2,114 Descending FlightAware ADS-B
Mon 09:17:47 PM 26.6640 -81.9550 123° Southeast 462 532 27,400 -2,541 Descending FlightAware ADS-B
Mon 09:18:32 PM 26.6090 -81.8620 123° Southeast 453 521 25,100 -2,965 Descending FlightAware ADS-B
Mon 09:19:12 PM 26.5630 -81.7820 123° Southeast 450 518 23,200 -2,526 Descending FlightAware ADS-B
Mon 09:20:07 PM 26.5060 -81.6830 123° Southeast 428 493 21,100 -2,280 Descending FlightAware ADS-B
Mon 09:20:52 PM 26.4560 -81.5980 123° Southeast 414 476 19,400 -2,400 Descending FlightAware ADS-B
Mon 09:21:32 PM 26.4130 -81.5270 124° Southeast 404 465 17,700 -2,250 Descending FlightAware ADS-B
Mon 09:22:12 PM 26.3710 -81.4570 124° Southeast 384 442 16,400 -2,118 Descending FlightAware ADS-B
Mon 09:22:57 PM 26.3280 -81.3830 123° Southeast 380 437 14,700 -2,100 Descending FlightAware ADS-B
Mon 09:23:52 PM 26.2780 -81.2920 121° Southeast 361 415 12,900 -1,895 Descending FlightAware ADS-B
Mon 09:24:32 PM 26.2480 -81.2350 120° Southeast 352 405 11,700 -1,694 Descending FlightAware ADS-B
Mon 09:25:17 PM 26.2100 -81.1640 121° Southeast 331 381 10,500 -1,200 Descending FlightAware ADS-B
Mon 09:25:57 PM 26.1800 -81.1050 120° Southeast 301 346 10,000 -1,114 Descending FlightAware ADS-B
Mon 09:26:27 PM 26.1580 -81.0640 121° Southeast 295 339 9,200 -1,309 Descending FlightAware ADS-B
Mon 09:26:52 PM 26.1430 -81.0370 122° Southeast 290 334 8,800 -1,309 Descending FlightAware ADS-B
Mon 09:27:22 PM 26.1190 -80.9950 122° Southeast 285 328 8,000 -982 Descending FlightAware ADS-B
Mon 09:27:47 PM 26.1060 -80.9620 114° Southeast 285 328 7,900 -109 Descending FlightAware ADS-B
Mon 09:28:17 PM 26.0950 -80.9170 105° East 280 322 7,900 -141 Level FlightAware ADS-B
Mon 09:29:12 PM 26.0790 -80.8460 104° East 275 316 7,700 -660 Descending FlightAware ADS-B
Mon 09:29:57 PM 26.0780 -80.7800 91° East 278 320 6,800 -1,114 Descending FlightAware ADS-B
Mon 09:30:22 PM 26.0780 -80.7450 90° East 278 320 6,400 -982 Descending FlightAware ADS-B
Mon 09:30:52 PM 26.0780 -80.7070 90° East 277 319 5,900 -500 Descending FlightAware ADS-B
Mon 09:31:22 PM 26.0790 -80.6590 89° East 272 313 5,900  Level FlightAware ADS-B
Mon 09:31:47 PM 26.0790 -80.6210 90° East 278 320 5,900 -655 Level FlightAware ADS-B
Mon 09:32:17 PM 26.0790 -80.5830 90° East 280 322 5,300 -1,309 Descending FlightAware ADS-B
Mon 09:32:42 PM 26.0780 -80.5470 92° East 278 320 4,700 -1,418 Descending FlightAware ADS-B
Mon 09:33:12 PM 26.0780 -80.5030 90° East 272 313 4,000 -800 Descending FlightAware ADS-B
Mon 09:33:42 PM 26.0780 -80.4620 90° East 254 292 3,900 -327 Descending FlightAware ADS-B
Mon 09:34:07 PM 26.0780 -80.4310 90° East 241 277 3,700 -218 Descending FlightAware ADS-B
Mon 09:34:37 PM 26.0780 -80.3970 90° East 210 242 3,700 -218 Level FlightAware ADS-B
Mon 09:35:02 PM 26.0780 -80.3700 90° East 200 230 3,500 -764 Descending FlightAware ADS-B
Mon 09:35:32 PM 26.0780 -80.3390 90° East 199 229 3,000 -1,000 Descending FlightAware ADS-B
Mon 09:36:02 PM 26.0770 -80.3080 92° East 200 230 2,500 -1,114 Descending FlightAware ADS-B
Mon 09:36:42 PM 26.0780 -80.2690 88° East 192 221 1,700 -1,114 Descending FlightAware ADS-B
Mon 09:37:12 PM 26.0770 -80.2410 92° East 167 192 1,200 -873 Descending FlightAware ADS-B
Mon 09:37:37 PM 26.0770 -80.2210 90° East 150 173 900 -764 Descending FlightAware ADS-B
Mon 09:38:07 PM 26.0770 -80.1990 90° East 142 163 500 -764 Descending FlightAware ADS-B
Mon 09:38:32 PM 26.0770 -80.1790 90° East 144 166 200 -720 Descending FlightAware ADS-B
Mon 09:39:12 PM 26.0770 -80.1540 90° East 145 167 -300 Descending FlightAware ADS-B

Login

Don't have an account? Register now (free) for customized features, flight alerts, and more!